Time;durP1;ratioP1;P1;durP2;ratioP2;P2;SDS_P1;SDS_P2;PMS_P1;PMS_P2;Temp;Humidity;BMP_temperature;BMP_pressure;BME280_temperature;BME280_humidity;BME280_pressure;Samples;Min_cycle;Max_cycle;Signal;HPM_P1;HPM_P2
2023/04/18 00:01:14;;;;;;;7.57;5.53;;;;;;;9.74;100.00;62999.66;6262584;23;20211;-79
2023/04/18 00:03:44;;;;;;;5.90;5.30;;;;;;;9.80;100.00;63008.91;6262764;22;20231;-79
2023/04/18 00:06:13;;;;;;;4.70;4.40;;;;;;;9.85;100.00;63014.09;6262266;23;20360;-79
2023/04/18 00:08:40;;;;;;;5.53;5.03;;;;;;;9.69;100.00;62997.53;6262107;22;20193;-79
2023/04/18 00:11:07;;;;;;;5.88;4.70;;;;;;;9.53;100.00;62981.00;6260985;22;20165;-79
2023/04/18 00:13:34;;;;;;;8.25;5.38;;;;;;;9.56;100.00;62984.09;6263772;22;20411;-79
2023/04/18 00:16:01;;;;;;;6.18;5.25;;;;;;;9.55;100.00;62977.47;6262906;23;20262;-78
2023/04/18 00:18:28;;;;;;;6.50;5.90;;;;;;;9.58;100.00;62986.16;6262025;22;20248;-78
2023/04/18 00:20:55;;;;;;;5.68;5.18;;;;;;;9.67;100.00;62992.41;6261704;23;20204;-79
2023/04/18 00:23:26;;;;;;;7.85;5.50;;;;;;;9.74;100.00;63004.72;6260981;23;20219;-77
2023/04/18 00:25:53;;;;;;;6.47;5.60;;;;;;;9.71;100.00;62999.63;6263229;23;20188;-79
2023/04/18 00:28:20;;;;;;;7.97;5.88;;;;;;;9.66;100.00;62994.44;6261971;22;20254;-80
2023/04/18 00:30:48;;;;;;;6.85;6.18;;;;;;;9.66;100.00;62991.91;6261738;23;20173;-78
2023/04/18 00:33:15;;;;;;;16.27;6.55;;;;;;;9.63;100.00;62991.34;6262457;22;20204;-79
2023/04/18 00:35:42;;;;;;;9.43;6.68;;;;;;;9.67;100.00;62995.47;6263267;22;20165;-78
2023/04/18 00:38:10;;;;;;;10.13;6.47;;;;;;;9.71;100.00;62997.06;6262271;23;20192;-78
2023/04/18 00:40:38;;;;;;;8.32;6.53;;;;;;;9.68;100.00;62993.97;6263256;23;20173;-79
2023/04/18 00:43:07;;;;;;;7.40;6.65;;;;;;;9.59;100.00;62984.66;6264473;23;20545;-80
2023/04/18 00:45:34;;;;;;;6.07;5.53;;;;;;;9.44;100.00;62971.19;6263879;23;20183;-81
2023/04/18 00:48:01;;;;;;;8.85;6.63;;;;;;;9.35;100.00;62957.31;6263076;23;20268;-79
2023/04/18 00:50:28;;;;;;;5.93;5.28;;;;;;;9.43;100.00;62967.59;6265486;23;20284;-79
2023/04/18 00:52:55;;;;;;;6.22;4.43;;;;;;;9.44;100.00;62973.72;6260344;23;20201;-79
2023/04/18 00:55:23;;;;;;;6.10;5.47;;;;;;;9.23;100.00;62945.41;6261541;22;20218;-79
2023/04/18 00:57:52;;;;;;;6.93;5.70;;;;;;;9.33;100.00;62955.25;6263274;22;20579;-78
2023/04/18 01:00:19;;;;;;;6.20;5.60;;;;;;;9.33;100.00;62957.78;6260237;22;20176;-78
2023/04/18 01:02:48;;;;;;;8.02;5.70;;;;;;;9.29;100.00;62956.19;6260183;23;20279;-78
2023/04/18 01:05:15;;;;;;;8.07;5.85;;;;;;;9.31;100.00;62958.78;6262233;23;20482;-79
2023/04/18 01:07:43;;;;;;;5.65;5.13;;;;;;;9.38;100.00;62965.50;6260434;23;20565;-79
2023/04/18 01:10:11;;;;;;;8.73;6.07;;;;;;;9.38;100.00;62964.97;6260589;22;20172;-78
2023/04/18 01:12:38;;;;;;;7.90;6.25;;;;;;;9.44;100.00;62968.63;6263447;23;20192;-79
2023/04/18 01:15:08;;;;;;;6.40;5.72;;;;;;;9.35;100.00;62959.84;6260962;22;20264;-79
2023/04/18 01:17:35;;;;;;;6.20;5.43;;;;;;;9.17;100.00;62944.31;6263434;23;20193;-79
2023/04/18 01:20:05;;;;;;;5.82;5.30;;;;;;;9.20;100.00;62947.41;6262353;22;20339;-80
2023/04/18 01:22:32;;;;;;;6.65;5.38;;;;;;;9.19;100.00;62943.31;6260221;22;20204;-78
2023/04/18 01:25:00;;;;;;;6.03;5.43;;;;;;;9.23;100.00;62950.00;6260362;23;20211;-78
2023/04/18 01:27:27;;;;;;;8.77;5.07;;;;;;;9.25;100.00;62955.09;6260492;22;20195;-77
2023/04/18 01:29:54;;;;;;;5.65;5.05;;;;;;;9.35;100.00;62959.84;6258944;23;20169;-78
2023/04/18 01:32:22;;;;;;;6.68;5.63;;;;;;;9.41;100.00;62970.59;6263784;23;20210;-79
2023/04/18 01:34:49;;;;;;;5.85;5.20;;;;;;;9.43;100.00;62968.13;6259536;22;20179;-78
2023/04/18 01:37:16;;;;;;;5.90;5.40;;;;;;;9.57;100.00;62985.13;6259631;23;20193;-79
2023/04/18 01:39:43;;;;;;;6.00;5.50;;;;;;;9.65;100.00;62995.41;6261453;23;20169;-78
2023/04/18 01:42:12;;;;;;;5.45;4.78;;;;;;;9.71;100.00;62997.06;6259230;23;20252;-78
2023/04/18 01:44:39;;;;;;;6.90;5.00;;;;;;;9.59;100.00;62984.66;6260964;23;20168;-78
2023/04/18 01:47:06;;;;;;;5.60;5.20;;;;;;;9.56;100.00;62984.09;6258967;23;20257;-79
2023/04/18 01:49:33;;;;;;;7.90;5.90;;;;;;;9.47;100.00;62971.75;6259562;23;20173;-78
2023/04/18 01:52:00;;;;;;;6.65;4.88;;;;;;;9.28;100.00;62953.13;6259867;23;20192;-80
2023/04/18 01:54:27;;;;;;;5.55;5.05;;;;;;;9.07;100.00;62933.44;6260413;22;20173;-79
2023/04/18 01:56:54;;;;;;;7.20;5.82;;;;;;;9.28;100.00;62950.56;6259600;23;20196;-79
2023/04/18 01:59:22;;;;;;;6.50;5.90;;;;;;;9.27;100.00;62956.66;6265836;22;20451;-79
2023/04/18 02:01:49;;;;;;;8.02;5.88;;;;;;;9.36;100.00;62960.88;6261454;23;20242;-79
2023/04/18 02:04:16;;;;;;;5.78;5.28;;;;;;;9.29;100.00;62954.16;6260391;23;20236;-79
2023/04/18 02:06:43;;;;;;;9.45;6.43;;;;;;;9.32;100.00;62962.34;6260480;23;20188;-78
2023/04/18 02:09:10;;;;;;;6.30;5.70;;;;;;;9.25;100.00;62952.56;6260660;23;20225;-79
2023/04/18 02:11:37;;;;;;;6.55;5.72;;;;;;;9.20;100.00;62944.34;6260496;23;20161;-78
2023/04/18 02:14:05;;;;;;;6.72;5.93;;;;;;;9.27;100.00;62959.72;6261411;23;20168;-78
2023/04/18 02:16:33;;;;;;;9.25;6.28;;;;;;;9.37;100.00;62961.91;6259629;22;20188;-78
2023/04/18 02:19:03;;;;;;;10.20;6.72;;;;;;;9.44;100.00;62971.69;6258793;23;20176;-76
2023/04/18 02:21:30;;;;;;;9.40;7.05;;;;;;;9.37;100.00;62959.38;6259060;23;20177;-79
2023/04/18 02:23:57;;;;;;;13.55;6.63;;;;;;;9.37;100.00;62961.41;6258789;23;20223;-77
2023/04/18 02:26:24;;;;;;;7.13;6.35;;;;;;;9.42;100.00;62967.09;6260354;23;20175;-77
2023/04/18 02:28:51;;;;;;;5.72;5.20;;;;;;;9.31;100.00;62958.78;6260470;22;20172;-77
2023/04/18 02:31:18;;;;;;;9.88;6.15;;;;;;;9.26;100.00;62953.09;6260099;23;20175;-78
2023/04/18 02:33:47;;;;;;;5.80;5.30;;;;;;;9.18;100.00;62942.78;6257279;22;20248;-78
2023/04/18 02:36:14;;;;;;;6.57;5.97;;;;;;;9.32;100.00;62961.81;6257578;23;20208;-78
2023/04/18 02:38:41;;;;;;;7.35;6.57;;;;;;;9.31;100.00;62958.25;6258055;23;20192;-77
2023/04/18 02:41:13;;;;;;;7.47;6.47;;;;;;;9.35;100.00;62960.34;6258337;23;20177;-78
2023/04/18 02:43:40;;;;;;;8.32;7.22;;;;;;;9.31;100.00;62958.25;6259347;23;20438;-78
2023/04/18 02:46:07;;;;;;;12.88;8.80;;;;;;;9.27;100.00;62951.56;6259052;23;20207;-78
2023/04/18 02:48:34;;;;;;;11.82;8.98;;;;;;;9.19;100.00;62945.84;6262099;23;20185;-78
2023/04/18 02:51:07;;;;;;;9.73;7.85;;;;;;;9.13;100.00;62942.69;6260313;23;20178;-79
2023/04/18 02:53:34;;;;;;;11.32;8.07;;;;;;;9.16;100.00;62938.16;6259088;23;20553;-78
2023/04/18 02:56:02;;;;;;;12.88;8.88;;;;;;;9.12;100.00;62941.66;6261360;23;20233;-79
2023/04/18 02:58:29;;;;;;;10.88;9.02;;;;;;;9.18;100.00;62940.25;6261968;23;20180;-79
2023/04/18 03:00:56;;;;;;;11.52;8.60;;;;;;;9.19;100.00;62945.84;6258894;23;20180;-78
2023/04/18 03:03:23;;;;;;;13.15;9.77;;;;;;;9.08;100.00;62932.44;6259773;23;20208;-78
2023/04/18 03:05:50;;;;;;;10.18;8.60;;;;;;;9.04;100.00;62933.38;6260974;22;20374;-79
2023/04/18 03:08:19;;;;;;;10.75;9.07;;;;;;;9.10;100.00;62934.53;6259868;23;20192;-79
2023/04/18 03:10:47;;;;;;;13.70;9.63;;;;;;;9.01;100.00;62932.84;6261710;22;20172;-79
2023/04/18 03:13:14;;;;;;;13.93;9.05;;;;;;;9.00;100.00;62926.22;6261406;23;20189;-79
2023/04/18 03:15:41;;;;;;;9.98;8.48;;;;;;;8.98;100.00;62924.66;6261250;22;20161;-81
2023/04/18 03:18:08;;;;;;;11.18;8.77;;;;;;;8.98;100.00;62924.66;6261418;23;20181;-81
2023/04/18 03:20:36;;;;;;;9.98;8.70;;;;;;;8.96;100.00;62919.53;6262796;23;20191;-80
2023/04/18 03:23:03;;;;;;;11.43;8.60;;;;;;;8.99;100.00;62925.19;6261506;23;20450;-79
2023/04/18 03:25:33;;;;;;;14.02;8.30;;;;;;;9.02;100.00;62928.28;6262070;23;20165;-78
2023/04/18 03:28:00;;;;;;;13.30;8.98;;;;;;;9.02;100.00;62928.81;6261148;23;20245;-79
2023/04/18 03:30:27;;;;;;;13.90;9.73;;;;;;;9.09;100.00;62935.50;6258586;23;20177;-79
2023/04/18 03:32:54;;;;;;;11.13;8.48;;;;;;;9.13;100.00;62942.69;6256457;22;20201;-78
2023/04/18 03:35:22;;;;;;;14.45;8.23;;;;;;;9.24;100.00;62948.47;6260597;23;20179;-78
2023/04/18 03:37:48;;;;;;;10.02;8.43;;;;;;;9.26;100.00;62953.09;6258846;23;20249;-78
2023/04/18 03:40:15;;;;;;;10.25;8.55;;;;;;;9.17;100.00;62941.75;6257898;22;20168;-78
2023/04/18 03:42:43;;;;;;;11.05;7.88;;;;;;;9.15;100.00;62944.78;6257570;22;20555;-79
2023/04/18 03:45:11;;;;;;;13.80;9.40;;;;;;;9.07;100.00;62935.97;6258134;23;20173;-77
2023/04/18 03:47:38;;;;;;;10.75;9.65;;;;;;;9.03;100.00;62926.75;6257712;23;20192;-77
2023/04/18 03:50:06;;;;;;;15.35;10.90;;;;;;;9.06;100.00;62930.38;6264360;22;20169;-78
2023/04/18 03:52:33;;;;;;;15.43;12.63;;;;;;;8.72;100.00;62892.19;6260821;22;20193;-79
2023/04/18 03:55:00;;;;;;;17.35;12.35;;;;;;;8.78;100.00;62903.47;6261807;22;20176;-79
2023/04/18 03:57:27;;;;;;;17.70;11.05;;;;;;;8.99;100.00;62920.59;6261385;22;20192;-79
2023/04/18 03:59:55;;;;;;;16.42;11.40;;;;;;;9.13;100.00;62937.09;6260906;22;20171;-79
2023/04/18 04:02:22;;;;;;;14.05;9.82;;;;;;;9.19;100.00;62943.84;6259501;23;20207;-79
2023/04/18 04:04:48;;;;;;;14.60;11.05;;;;;;;9.12;100.00;62938.59;6260316;23;20172;-78
2023/04/18 04:07:15;;;;;;;13.98;10.45;;;;;;;9.08;100.00;62937.53;6260671;23;20215;-79
2023/04/18 04:09:42;;;;;;;13.93;10.15;;;;;;;9.06;100.00;62932.91;6259874;23;20169;-80
2023/04/18 04:12:09;;;;;;;11.75;9.50;;;;;;;9.05;100.00;62931.91;6260804;23;20423;-80
2023/04/18 04:14:36;;;;;;;16.08;10.95;;;;;;;9.15;100.00;62944.25;6259817;23;20187;-80
2023/04/18 04:17:04;;;;;;;12.82;10.50;;;;;;;9.09;100.00;62940.59;6259585;23;20201;-79
2023/04/18 04:19:31;;;;;;;15.10;10.40;;;;;;;9.11;100.00;62940.63;6259404;22;20169;-79
2023/04/18 04:21:58;;;;;;;15.18;11.68;;;;;;;9.18;100.00;62942.78;6259734;23;20193;-80
2023/04/18 04:24:25;;;;;;;17.13;11.60;;;;;;;9.11;100.00;62937.59;6261114;23;20503;-80
2023/04/18 04:26:53;;;;;;;16.52;11.95;;;;;;;9.10;100.00;62937.06;6264326;23;20192;-79
2023/04/18 04:29:20;;;;;;;14.25;12.75;;;;;;;9.13;100.00;62940.16;6261944;22;20370;-80
2023/04/18 04:31:47;;;;;;;18.45;13.75;;;;;;;9.21;100.00;62945.88;6262157;23;20199;-80
2023/04/18 04:34:15;;;;;;;25.50;15.25;;;;;;;9.27;100.00;62949.56;6261066;23;20172;-80
2023/04/18 04:36:43;;;;;;;25.80;14.50;;;;;;;9.38;100.00;62967.50;6260762;22;20211;-81
2023/04/18 04:39:10;;;;;;;31.25;15.75;;;;;;;9.32;100.00;62957.25;6262961;22;20215;-80
2023/04/18 04:41:39;;;;;;;26.65;16.15;;;;;;;9.35;100.00;62962.41;6263216;22;20177;-78
2023/04/18 04:44:06;;;;;;;24.98;15.15;;;;;;;9.33;100.00;62960.31;6262169;23;20204;-80
2023/04/18 04:46:34;;;;;;;21.35;13.82;;;;;;;9.41;100.00;62968.06;6260700;23;20172;-80
2023/04/18 04:49:01;;;;;;;17.77;12.73;;;;;;;9.40;100.00;62967.56;6260284;22;20168;-81
2023/04/18 04:51:30;;;;;;;17.88;13.00;;;;;;;9.47;100.00;62972.25;6261886;23;20164;-80
2023/04/18 04:53:57;;;;;;;15.88;10.95;;;;;;;9.58;100.00;62983.63;6260839;22;20188;-79
2023/04/18 04:56:25;;;;;;;14.18;10.70;;;;;;;9.75;100.00;63000.69;6263415;23;20175;-81
2023/04/18 04:58:52;;;;;;;15.30;10.90;;;;;;;9.77;100.00;63003.28;6259773;22;20341;-79
2023/04/18 05:01:19;;;;;;;16.10;10.77;;;;;;;9.96;100.00;63025.47;6262068;22;20169;-81
2023/04/18 05:03:46;;;;;;;12.93;11.02;;;;;;;10.21;100.00;63048.81;6262377;23;20200;-79
2023/04/18 05:06:19;;;;;;;13.23;10.68;;;;;;;10.51;100.00;63081.38;6264285;23;20172;-79
2023/04/18 05:08:47;;;;;;;13.13;11.13;;;;;;;10.42;100.00;63070.53;6261917;23;20494;-79
2023/04/18 05:11:14;;;;;;;14.70;10.93;;;;;;;10.44;100.00;63075.16;6261863;22;20165;-79
2023/04/18 05:13:41;;;;;;;15.00;11.40;;;;;;;10.59;100.00;63090.16;6262059;22;20192;-78
2023/04/18 05:16:08;;;;;;;17.80;13.10;;;;;;;10.52;100.00;63077.84;6259920;22;20188;-78
2023/04/18 05:18:37;;;;;;;18.20;12.65;;;;;;;10.45;100.00;63073.66;6259712;23;20366;-78
2023/04/18 05:21:05;;;;;;;17.75;12.52;;;;;;;10.43;100.00;63071.06;6261993;23;20474;-78
2023/04/18 05:23:33;;;;;;;18.83;13.25;;;;;;;10.27;100.00;63057.03;6260793;23;20208;-80
2023/04/18 05:26:02;;;;;;;17.35;13.60;;;;;;;10.23;100.00;63058.50;6261098;23;20518;-81
2023/04/18 05:28:28;;;;;;;17.90;13.50;;;;;;;10.33;100.00;63060.72;6262083;23;20579;-78
2023/04/18 05:31:00;;;;;;;20.48;13.95;;;;;;;10.43;100.00;63071.56;6260828;23;20179;-79
2023/04/18 05:33:27;;;;;;;20.40;14.20;;;;;;;10.53;100.00;63086.00;6260737;23;20199;-79
2023/04/18 05:35:54;;;;;;;17.27;12.93;;;;;;;10.44;100.00;63075.16;6259030;22;20161;-78
2023/04/18 05:38:21;;;;;;;18.67;12.05;;;;;;;10.43;100.00;63071.56;6260131;23;20501;-78
2023/04/18 05:40:49;;;;;;;16.58;12.15;;;;;;;10.70;100.00;63101.03;6260246;23;20195;-79
2023/04/18 05:43:19;;;;;;;16.80;12.35;;;;;;;10.76;100.00;63104.69;6260223;22;20216;-78
2023/04/18 05:45:46;;;;;;;14.77;11.70;;;;;;;10.91;100.00;63120.75;6259595;23;20173;-78
2023/04/18 05:48:13;;;;;;;14.68;11.80;;;;;;;11.14;100.00;63144.56;6261840;22;20213;-77
2023/04/18 05:50:40;;;;;;;15.63;10.23;;;;;;;11.21;100.00;63153.84;6259469;22;20196;-78
2023/04/18 05:53:07;;;;;;;15.23;11.77;;;;;;;11.34;100.00;63167.28;6261048;22;20216;-78
2023/04/18 05:55:34;;;;;;;17.25;12.07;;;;;;;11.21;100.00;63153.84;6259350;22;20234;-77
2023/04/18 05:58:01;;;;;;;16.85;13.10;;;;;;;11.11;100.00;63143.47;6259068;22;20184;-78
2023/04/18 06:00:29;;;;;;;20.20;15.55;;;;;;;11.30;100.00;63163.16;6258705;22;20168;-77
2023/04/18 06:02:56;;;;;;;22.17;15.77;;;;;;;11.44;100.00;63177.66;6260160;23;20246;-78
2023/04/18 06:05:22;;;;;;;16.42;12.45;;;;;;;11.27;100.00;63158.00;6258601;22;20204;-78
2023/04/18 06:07:49;;;;;;;16.02;10.88;;;;;;;11.08;100.00;63137.84;6258585;23;20200;-78
2023/04/18 06:10:16;;;;;;;13.90;9.82;;;;;;;11.13;100.00;63151.16;6260874;23;20466;-78
2023/04/18 06:12:43;;;;;;;14.73;10.10;;;;;;;11.07;100.00;63139.84;6258499;22;20193;-78
2023/04/18 06:15:11;;;;;;;12.85;10.27;;;;;;;11.04;100.00;63138.78;6259663;23;20172;-78
2023/04/18 06:17:40;;;;;;;12.05;10.25;;;;;;;10.87;100.00;63121.19;6259201;23;20244;-79
2023/04/18 06:20:07;;;;;;;11.75;9.85;;;;;;;10.67;100.00;63097.91;6259753;23;20177;-77
2023/04/18 06:22:34;;;;;;;11.48;9.70;;;;;;;10.52;100.00;63085.47;6260123;22;20200;-78
2023/04/18 06:25:01;;;;;;;14.55;10.63;;;;;;;10.48;100.00;63078.78;6257647;23;20200;-78
2023/04/18 06:27:28;;;;;;;13.35;10.07;;;;;;;10.38;100.00;63065.88;6258704;22;20204;-77
2023/04/18 06:29:55;;;;;;;13.77;10.25;;;;;;;10.44;100.00;63077.16;6259309;23;20168;-79
2023/04/18 06:32:22;;;;;;;14.95;9.88;;;;;;;10.47;100.00;63077.75;6258288;23;20193;-77
2023/04/18 06:34:51;;;;;;;14.18;9.98;;;;;;;10.67;100.00;63095.91;6260632;23;20188;-79
2023/04/18 06:37:19;;;;;;;12.13;9.40;;;;;;;10.79;100.00;63112.88;6258767;22;20361;-77
2023/04/18 06:39:45;;;;;;;12.27;9.75;;;;;;;10.91;100.00;63122.75;6257897;22;20226;-78
2023/04/18 06:42:12;;;;;;;12.68;9.82;;;;;;;11.15;100.00;63145.59;6261240;23;20189;-77
2023/04/18 06:44:41;;;;;;;15.05;10.40;;;;;;;11.19;100.00;63154.31;6258894;22;20204;-78
2023/04/18 06:47:09;;;;;;;14.52;10.25;;;;;;;11.38;100.00;63171.44;6259238;23;20196;-78
2023/04/18 06:49:36;;;;;;;16.23;11.18;;;;;;;11.65;100.00;63196.88;6260604;23;20195;-78
2023/04/18 06:52:04;;;;;;;14.75;8.50;;;;;;;11.89;100.00;63221.22;6258588;23;20521;-77
2023/04/18 06:54:31;;;;;;;9.57;8.32;;;;;;;11.95;100.00;63230.50;6259014;23;20168;-77
2023/04/18 06:56:59;;;;;;;11.65;8.60;;;;;;;11.88;100.00;63223.25;6258765;22;20188;-78
2023/04/18 06:59:26;;;;;;;9.68;8.65;;;;;;;11.98;100.00;63233.63;6258858;22;20199;-78
2023/04/18 07:01:53;;;;;;;12.57;8.85;;;;;;;12.14;100.00;63247.13;6259024;23;20188;-78
2023/04/18 07:04:20;;;;;;;13.02;9.13;;;;;;;12.33;100.00;63264.78;6259049;23;20200;-78
2023/04/18 07:06:47;;;;;;;11.63;8.48;;;;;;;12.32;100.00;63268.84;6259714;23;20197;-78
2023/04/18 07:09:15;;;;;;;10.73;8.93;;;;;;;12.39;100.00;63276.13;6258594;23;20172;-77
2023/04/18 07:11:42;;;;;;;9.27;8.27;;;;;;;12.33;100.00;63264.78;6260355;23;20518;-79
2023/04/18 07:14:10;;;;;;;10.70;8.10;;;;;;;12.25;100.00;63259.03;6259958;23;20195;-77
2023/04/18 07:16:37;;;;;;;11.02;8.05;;;;;;;12.12;100.00;63250.16;6257774;23;20175;-78
2023/04/18 07:19:05;;;;;;;8.82;7.78;;;;;;;12.05;100.00;63240.88;6257652;22;20363;-77
2023/04/18 07:21:32;;;;;;;9.13;8.02;;;;;;;12.08;100.00;63241.44;6259163;23;20485;-77
2023/04/18 07:23:59;;;;;;;7.32;6.68;;;;;;;12.14;100.00;63247.66;6257802;23;20215;-78
2023/04/18 07:26:27;;;;;;;9.45;7.40;;;;;;;12.22;100.00;63263.59;6258449;23;20408;-76
2023/04/18 07:28:54;;;;;;;9.30;7.63;;;;;;;12.15;100.00;63245.63;6258457;23;20179;-77
2023/04/18 07:31:20;;;;;;;9.35;6.95;;;;;;;12.07;100.00;63242.44;6257129;23;20481;-77
2023/04/18 07:33:47;;;;;;;7.78;6.75;;;;;;;11.92;100.00;63226.88;6257735;23;20164;-76
2023/04/18 07:36:14;;;;;;;10.02;7.35;;;;;;;12.07;100.00;63242.94;6260848;23;20482;-79
2023/04/18 07:38:41;;;;;;;9.38;8.07;;;;;;;12.16;100.00;63251.75;6260496;23;20212;-77
2023/04/18 07:41:08;;;;;;;9.60;7.53;;;;;;;12.18;100.00;63253.84;6258757;22;20207;-76
2023/04/18 07:43:37;;;;;;;7.18;6.47;;;;;;;12.28;100.00;63259.09;6257158;23;20200;-77
2023/04/18 07:46:04;;;;;;;7.40;6.70;;;;;;;12.45;100.00;63282.34;6256160;23;20289;-77
2023/04/18 07:48:31;;;;;;;7.93;6.88;;;;;;;12.59;100.00;63304.53;6256784;23;20207;-77
2023/04/18 07:50:59;;;;;;;7.05;6.35;;;;;;;12.62;100.00;63299.97;6256557;23;20185;-78
2023/04/18 07:53:26;;;;;;;6.20;5.68;;;;;;;12.69;100.00;63307.22;6258700;23;20185;-77
2023/04/18 07:55:53;;;;;;;5.82;5.18;;;;;;;12.67;100.00;63304.63;6257145;23;20169;-77
2023/04/18 07:58:20;;;;;;;7.47;5.43;;;;;;;12.53;100.00;63290.63;6257217;22;20509;-78
2023/04/18 08:00:48;;;;;;;6.57;5.60;;;;;;;12.44;100.00;63273.63;6258499;23;20187;-78
2023/04/18 08:03:15;;;;;;;7.13;6.43;;;;;;;12.37;100.00;63273.53;6258890;22;20517;-77
2023/04/18 08:05:43;;;;;;;7.10;5.70;;;;;;;12.33;100.00;63272.47;6259037;22;20172;-77
2023/04/18 08:08:11;;;;;;;5.75;5.15;;;;;;;12.49;100.00;63291.59;6257896;23;20201;-77
2023/04/18 08:10:39;;;;;;;5.97;5.43;;;;;;;12.83;100.00;63323.78;6260289;22;20177;-77
2023/04/18 08:13:06;;;;;;;5.35;4.95;;;;;;;13.11;100.00;63355.41;6259046;23;20188;-77
2023/04/18 08:15:33;;;;;;;5.70;5.20;;;;;;;12.91;95.74;63331.56;6261257;23;20184;-77
2023/04/18 08:18:02;;;;;;;5.45;5.00;;;;;;;13.17;98.81;63355.97;6261292;23;20192;-77
2023/04/18 08:20:28;;;;;;;5.93;5.32;;;;;;;13.66;98.18;63409.91;6259961;23;20430;-78
2023/04/18 08:22:55;;;;;;;5.43;4.93;;;;;;;13.59;94.53;63402.66;6259300;22;20200;-78
2023/04/18 08:25:22;;;;;;;5.72;5.20;;;;;;;13.42;92.06;63385.00;6258256;22;20204;-77
2023/04/18 08:27:49;;;;;;;5.13;4.70;;;;;;;13.29;93.24;63366.41;6258313;23;20505;-77
2023/04/18 08:30:16;;;;;;;5.57;5.15;;;;;;;13.22;96.82;63361.69;6262981;22;20216;-78
2023/04/18 08:32:43;;;;;;;6.07;4.95;;;;;;;13.07;99.33;63346.13;6259595;23;20192;-78
2023/04/18 08:35:11;;;;;;;5.60;5.10;;;;;;;13.10;100.00;63351.78;6259897;23;20173;-77
2023/04/18 08:37:38;;;;;;;6.70;5.80;;;;;;;13.14;100.00;63352.88;6258871;22;20245;-78
2023/04/18 08:40:07;;;;;;;5.43;4.97;;;;;;;13.13;100.00;63349.78;6258936;23;20177;-78
2023/04/18 08:42:35;;;;;;;6.43;5.82;;;;;;;13.06;100.00;63344.59;6260479;23;20419;-77
2023/04/18 08:45:03;;;;;;;6.38;5.72;;;;;;;13.32;100.00;63369.00;6259517;23;20200;-78
2023/04/18 08:47:30;;;;;;;7.43;6.63;;;;;;;13.39;100.00;63378.81;6258547;23;20563;-77
2023/04/18 08:49:57;;;;;;;6.20;5.60;;;;;;;13.62;100.00;63402.69;6259983;23;20195;-78
2023/04/18 08:52:28;;;;;;;5.88;5.30;;;;;;;13.59;99.31;63402.13;6259965;23;20223;-78
2023/04/18 08:54:56;;;;;;;6.13;5.53;;;;;;;13.40;98.05;63382.94;6258890;23;20177;-78
2023/04/18 08:57:25;;;;;;;7.00;5.82;;;;;;;13.52;100.00;63392.31;6258041;23;20188;-78
2023/04/18 08:59:54;;;;;;;8.57;5.93;;;;;;;13.51;93.25;63393.81;6260519;23;20176;-78
2023/04/18 09:02:22;;;;;;;5.85;5.32;;;;;;;13.65;95.62;63410.91;6265085;23;20200;-78
2023/04/18 09:04:51;;;;;;;6.65;5.47;;;;;;;13.78;95.08;63416.72;6260659;22;20263;-77
2023/04/18 09:07:19;;;;;;;5.45;4.95;;;;;;;13.73;92.92;63409.50;6264420;23;20216;-79
2023/04/18 09:09:49;;;;;;;6.28;5.07;;;;;;;13.58;90.77;63399.03;6259865;23;20169;-78
2023/04/18 09:12:18;;;;;;;5.78;5.30;;;;;;;13.54;91.10;63392.34;6258076;23;20248;-78
2023/04/18 09:14:47;;;;;;;6.07;5.47;;;;;;;13.43;91.77;63383.47;6257884;22;20168;-78
2023/04/18 09:17:17;;;;;;;6.93;4.90;;;;;;;13.39;89.86;63376.25;6258516;22;20387;-78
2023/04/18 09:19:53;;;;;;;5.97;5.40;;;;;;;13.51;93.50;63386.16;6259069;23;20594;-78
2023/04/18 09:22:20;;;;;;;5.82;5.25;;;;;;;13.70;91.88;63414.06;6261038;23;20228;-79
2023/04/18 09:24:56;;;;;;;5.88;5.32;;;;;;;13.90;90.33;63439.94;6257127;23;20420;-78
2023/04/18 09:27:24;;;;;;;7.47;5.85;;;;;;;13.91;88.23;63433.28;6257643;23;20180;-78
2023/04/18 09:29:53;;;;;;;4.85;4.45;;;;;;;14.00;90.06;63442.13;6258465;23;20180;-78
2023/04/18 09:32:23;;;;;;;7.20;4.93;;;;;;;13.99;90.70;63443.13;6259129;23;20180;-78
2023/04/18 09:34:53;;;;;;;4.95;4.65;;;;;;;14.12;87.91;63457.13;6259379;23;20168;-78
2023/04/18 09:37:20;;;;;;;5.07;4.60;;;;;;;13.88;86.72;63427.63;6258573;23;20196;-77
2023/04/18 09:39:48;;;;;;;5.65;4.97;;;;;;;13.94;88.83;63436.41;6258718;23;20168;-79
2023/04/18 09:42:17;;;;;;;6.15;5.55;;;;;;;14.11;88.65;63453.03;6258831;22;20208;-78
2023/04/18 09:45:03;;;;;;;5.15;4.63;;;;;;;14.04;87.75;63445.75;6261274;23;20210;-78
2023/04/18 09:47:31;;;;;;;5.78;5.07;;;;;;;13.96;86.93;63435.41;6257225;23;20544;-78
2023/04/18 09:49:58;;;;;;;5.88;5.30;;;;;;;13.73;85.29;63412.06;6260050;23;20184;-78
2023/04/18 09:52:25;;;;;;;5.15;4.75;;;;;;;13.59;86.69;63394.97;6257907;23;20391;-78
2023/04/18 09:55:00;;;;;;;5.35;4.85;;;;;;;13.58;87.36;63395.97;6260065;23;20172;-77
2023/04/18 09:57:30;;;;;;;4.65;4.35;;;;;;;13.61;86.30;63402.16;6258515;23;20374;-77
2023/04/18 10:00:04;;;;;;;6.55;5.10;;;;;;;13.74;86.06;63418.22;6258891;23;20192;-79
2023/04/18 10:02:40;;;;;;;5.95;5.38;;;;;;;13.58;89.83;63393.94;6258011;23;20192;-78
2023/04/18 10:05:09;;;;;;;6.55;5.88;;;;;;;13.58;91.83;63399.03;6259145;23;20261;-78
2023/04/18 10:07:36;;;;;;;6.68;5.97;;;;;;;13.37;93.07;63376.75;6257910;23;20181;-79
2023/04/18 10:10:03;;;;;;;5.88;5.38;;;;;;;13.23;93.21;63362.22;6258848;22;20181;-79
2023/04/18 10:12:33;;;;;;;6.93;6.22;;;;;;;13.43;92.80;63382.97;6258097;22;20188;-77
2023/04/18 10:15:00;;;;;;;6.63;5.47;;;;;;;13.75;90.66;63416.69;6258312;23;20196;-77
2023/04/18 10:17:27;;;;;;;6.13;5.53;;;;;;;14.03;91.16;63439.59;6256818;23;20188;-78
2023/04/18 10:20:06;;;;;;;5.88;5.38;;;;;;;14.43;91.07;63488.81;6260797;22;20169;-77
2023/04/18 10:22:35;;;;;;;6.90;5.80;;;;;;;14.64;86.89;63508.06;6259674;23;20264;-78
2023/04/18 10:25:02;;;;;;;6.55;5.85;;;;;;;14.38;86.27;63481.59;6260323;22;20198;-78
2023/04/18 10:27:59;;;;;;;7.32;6.60;;;;;;;14.64;88.76;63508.06;6257542;23;20192;-79
2023/04/18 10:31:02;;;;;;;6.38;5.88;;;;;;;14.90;84.96;63532.53;6258094;22;20172;-79
2023/04/18 10:33:36;;;;;;;5.68;5.15;;;;;;;15.31;82.04;63575.13;6257307;23;20191;-78
2023/04/18 10:36:14;;;;;;;4.45;4.10;;;;;;;15.59;81.49;63604.25;6260103;23;20348;-79
2023/04/18 10:38:46;;;;;;;4.32;3.92;;;;;;;15.83;70.80;63623.53;6259584;23;20196;-78
2023/04/18 10:41:15;;;;;;;3.35;3.15;;;;;;;16.00;72.49;63648.91;6257134;23;20167;-78
2023/04/18 10:44:17;;;;;;;3.90;3.50;;;;;;;15.55;66.26;63600.09;6257481;23;20214;-77
2023/04/18 10:47:30;;;;;;;4.00;3.80;;;;;;;15.17;71.62;63562.63;6256386;23;20210;-77
2023/04/18 10:49:59;;;;;;;3.80;3.50;;;;;;;15.50;72.56;63597.47;6258152;23;20175;-78
2023/04/18 10:52:28;;;;;;;3.67;3.42;;;;;;;15.52;66.15;63599.53;6261217;22;20411;-76
2023/04/18 10:55:11;;;;;;;4.28;3.97;;;;;;;15.90;68.54;63639.03;6256887;22;20413;-77
2023/04/18 10:57:40;;;;;;;4.28;3.97;;;;;;;16.55;70.03;63703.06;6256879;23;20414;-78
2023/04/18 11:00:11;;;;;;;4.90;4.50;;;;;;;16.23;65.36;63672.84;6256355;23;20184;-78
2023/04/18 11:02:39;;;;;;;4.43;4.13;;;;;;;16.42;64.83;63692.09;6256101;23;20501;-77
2023/04/18 11:05:07;;;;;;;3.72;3.53;;;;;;;16.33;60.75;63680.16;6256696;22;20247;-77
2023/04/18 11:07:36;;;;;;;3.85;3.63;;;;;;;15.84;64.53;63634.88;6258445;23;20262;-78
2023/04/18 11:10:04;;;;;;;4.63;4.22;;;;;;;15.93;68.04;63641.63;6258841;23;20168;-77
2023/04/18 11:12:33;;;;;;;4.20;3.90;;;;;;;16.22;62.83;63671.28;6230123;23;20199;-78
2023/04/18 11:15:01;;;;;;;3.97;3.67;;;;;;;15.91;61.34;63637.00;6257590;23;20226;-77
2023/04/18 11:17:33;;;;;;;3.58;3.28;;;;;;;16.13;61.77;63659.88;6255808;23;20194;-78
2023/04/18 11:20:03;;;;;;;3.80;3.45;;;;;;;15.91;62.98;63639.56;6256538;23;20176;-79
2023/04/18 11:22:30;;;;;;;3.63;3.35;;;;;;;15.66;65.87;63616.13;6258788;22;20199;-78
2023/04/18 11:25:00;;;;;;;3.60;3.30;;;;;;;15.70;66.06;63617.72;6256977;22;20493;-77
2023/04/18 11:27:29;;;;;;;4.10;3.80;;;;;;;15.95;64.44;63646.28;6257721;22;20243;-78
2023/04/18 11:29:57;;;;;;;3.95;3.65;;;;;;;15.99;65.43;63647.88;6258584;23;20342;-78
2023/04/18 11:32:24;;;;;;;4.00;3.72;;;;;;;16.02;64.71;63648.44;6257928;23;20513;-78